sensor_id;sensor_type;location;lat;lon;timestamp;P1;durP1;ratioP1;P2;durP2;ratioP2
12214;SDS011;6170;42.206;24.142;2023-06-04T00:00:42;14.20;;;9.93;;
12214;SDS011;6170;42.206;24.142;2023-06-04T00:03:09;12.52;;;8.77;;
12214;SDS011;6170;42.206;24.142;2023-06-04T00:05:38;15.02;;;8.50;;
12214;SDS011;6170;42.206;24.142;2023-06-04T00:08:05;14.70;;;9.30;;
12214;SDS011;6170;42.206;24.142;2023-06-04T00:10:31;13.25;;;8.50;;
12214;SDS011;6170;42.206;24.142;2023-06-04T00:12:59;14.15;;;9.40;;
12214;SDS011;6170;42.206;24.142;2023-06-04T00:15:25;18.42;;;9.15;;
12214;SDS011;6170;42.206;24.142;2023-06-04T00:17:52;15.13;;;8.57;;
12214;SDS011;6170;42.206;24.142;2023-06-04T00:20:21;13.82;;;8.77;;
12214;SDS011;6170;42.206;24.142;2023-06-04T00:22:50;15.15;;;8.63;;
12214;SDS011;6170;42.206;24.142;2023-06-04T00:25:17;16.50;;;9.00;;
12214;SDS011;6170;42.206;24.142;2023-06-04T00:27:44;14.23;;;8.65;;
12214;SDS011;6170;42.206;24.142;2023-06-04T00:30:11;15.88;;;8.82;;
12214;SDS011;6170;42.206;24.142;2023-06-04T00:32:39;13.23;;;8.63;;
12214;SDS011;6170;42.206;24.142;2023-06-04T00:35:06;14.52;;;9.65;;
12214;SDS011;6170;42.206;24.142;2023-06-04T00:37:34;14.77;;;9.50;;
12214;SDS011;6170;42.206;24.142;2023-06-04T00:40:03;16.92;;;9.98;;
12214;SDS011;6170;42.206;24.142;2023-06-04T00:42:30;15.25;;;10.13;;
12214;SDS011;6170;42.206;24.142;2023-06-04T00:44:57;17.08;;;10.63;;
12214;SDS011;6170;42.206;24.142;2023-06-04T00:47:25;17.65;;;10.52;;
12214;SDS011;6170;42.206;24.142;2023-06-04T00:49:53;20.23;;;9.63;;
12214;SDS011;6170;42.206;24.142;2023-06-04T00:52:24;13.77;;;9.82;;
12214;SDS011;6170;42.206;24.142;2023-06-04T00:54:52;17.90;;;10.27;;
12214;SDS011;6170;42.206;24.142;2023-06-04T00:57:21;17.10;;;9.68;;
12214;SDS011;6170;42.206;24.142;2023-06-04T00:59:48;15.45;;;10.68;;
12214;SDS011;6170;42.206;24.142;2023-06-04T01:02:16;18.13;;;10.35;;
12214;SDS011;6170;42.206;24.142;2023-06-04T01:04:47;21.15;;;11.13;;
12214;SDS011;6170;42.206;24.142;2023-06-04T01:07:19;12.75;;;11.45;;
12214;SDS011;6170;42.206;24.142;2023-06-04T01:09:48;14.57;;;11.00;;
12214;SDS011;6170;42.206;24.142;2023-06-04T01:12:15;18.23;;;10.88;;
12214;SDS011;6170;42.206;24.142;2023-06-04T01:14:44;12.52;;;10.57;;
12214;SDS011;6170;42.206;24.142;2023-06-04T01:17:12;15.20;;;10.27;;
12214;SDS011;6170;42.206;24.142;2023-06-04T01:20:05;13.63;;;9.73;;
12214;SDS011;6170;42.206;24.142;2023-06-04T01:22:50;16.55;;;9.00;;
12214;SDS011;6170;42.206;24.142;2023-06-04T01:25:40;12.23;;;8.68;;
12214;SDS011;6170;42.206;24.142;2023-06-04T01:28:10;12.57;;;8.45;;
12214;SDS011;6170;42.206;24.142;2023-06-04T01:30:42;13.80;;;8.70;;
12214;SDS011;6170;42.206;24.142;2023-06-04T01:33:11;11.02;;;8.18;;
12214;SDS011;6170;42.206;24.142;2023-06-04T01:35:39;15.68;;;8.15;;
12214;SDS011;6170;42.206;24.142;2023-06-04T01:38:06;16.35;;;9.05;;
12214;SDS011;6170;42.206;24.142;2023-06-04T01:40:33;13.15;;;8.80;;
12214;SDS011;6170;42.206;24.142;2023-06-04T01:43:01;11.10;;;8.35;;
12214;SDS011;6170;42.206;24.142;2023-06-04T01:45:28;12.77;;;8.30;;
12214;SDS011;6170;42.206;24.142;2023-06-04T01:47:56;16.15;;;8.45;;
12214;SDS011;6170;42.206;24.142;2023-06-04T01:50:23;14.15;;;8.98;;
12214;SDS011;6170;42.206;24.142;2023-06-04T01:52:50;11.43;;;9.05;;
12214;SDS011;6170;42.206;24.142;2023-06-04T01:55:17;15.05;;;7.90;;
12214;SDS011;6170;42.206;24.142;2023-06-04T01:57:44;10.90;;;8.63;;
12214;SDS011;6170;42.206;24.142;2023-06-04T02:00:12;17.65;;;8.25;;
12214;SDS011;6170;42.206;24.142;2023-06-04T02:02:41;11.48;;;7.85;;
12214;SDS011;6170;42.206;24.142;2023-06-04T02:05:10;10.70;;;7.22;;
12214;SDS011;6170;42.206;24.142;2023-06-04T02:07:38;9.07;;;6.80;;
12214;SDS011;6170;42.206;24.142;2023-06-04T02:10:06;16.60;;;7.95;;
12214;SDS011;6170;42.206;24.142;2023-06-04T02:12:35;11.57;;;8.02;;
12214;SDS011;6170;42.206;24.142;2023-06-04T02:15:04;11.35;;;8.65;;
12214;SDS011;6170;42.206;24.142;2023-06-04T02:17:31;15.70;;;8.93;;
12214;SDS011;6170;42.206;24.142;2023-06-04T02:20:02;12.35;;;8.65;;
12214;SDS011;6170;42.206;24.142;2023-06-04T02:22:32;16.20;;;9.02;;
12214;SDS011;6170;42.206;24.142;2023-06-04T02:24:59;11.00;;;8.88;;
12214;SDS011;6170;42.206;24.142;2023-06-04T02:27:26;11.70;;;10.48;;
12214;SDS011;6170;42.206;24.142;2023-06-04T02:29:53;12.20;;;10.32;;
12214;SDS011;6170;42.206;24.142;2023-06-04T02:32:20;16.05;;;10.40;;
12214;SDS011;6170;42.206;24.142;2023-06-04T02:34:47;16.00;;;10.60;;
12214;SDS011;6170;42.206;24.142;2023-06-04T02:37:14;15.45;;;9.82;;
12214;SDS011;6170;42.206;24.142;2023-06-04T02:39:42;11.93;;;10.65;;
12214;SDS011;6170;42.206;24.142;2023-06-04T02:42:09;13.00;;;9.75;;
12214;SDS011;6170;42.206;24.142;2023-06-04T02:44:36;14.55;;;10.23;;
12214;SDS011;6170;42.206;24.142;2023-06-04T02:47:03;16.98;;;10.10;;
12214;SDS011;6170;42.206;24.142;2023-06-04T02:49:30;16.52;;;10.75;;
12214;SDS011;6170;42.206;24.142;2023-06-04T02:51:57;15.63;;;10.60;;
12214;SDS011;6170;42.206;24.142;2023-06-04T02:54:24;14.93;;;10.73;;
12214;SDS011;6170;42.206;24.142;2023-06-04T02:56:52;16.20;;;10.75;;
12214;SDS011;6170;42.206;24.142;2023-06-04T02:59:19;21.45;;;11.68;;
12214;SDS011;6170;42.206;24.142;2023-06-04T03:01:46;16.80;;;11.43;;
12214;SDS011;6170;42.206;24.142;2023-06-04T03:04:14;18.02;;;12.02;;
12214;SDS011;6170;42.206;24.142;2023-06-04T03:06:41;15.57;;;11.38;;
12214;SDS011;6170;42.206;24.142;2023-06-04T03:09:10;23.70;;;12.07;;
12214;SDS011;6170;42.206;24.142;2023-06-04T03:11:37;17.38;;;11.68;;
12214;SDS011;6170;42.206;24.142;2023-06-04T03:14:06;17.00;;;11.48;;
12214;SDS011;6170;42.206;24.142;2023-06-04T03:16:32;17.63;;;10.43;;
12214;SDS011;6170;42.206;24.142;2023-06-04T03:18:59;12.38;;;11.00;;
12214;SDS011;6170;42.206;24.142;2023-06-04T03:21:26;12.02;;;10.77;;
12214;SDS011;6170;42.206;24.142;2023-06-04T03:23:54;14.50;;;11.02;;
12214;SDS011;6170;42.206;24.142;2023-06-04T03:26:21;15.57;;;12.50;;
12214;SDS011;6170;42.206;24.142;2023-06-04T03:28:48;14.43;;;11.35;;
12214;SDS011;6170;42.206;24.142;2023-06-04T03:31:16;17.95;;;12.15;;
12214;SDS011;6170;42.206;24.142;2023-06-04T03:33:43;18.23;;;12.25;;
12214;SDS011;6170;42.206;24.142;2023-06-04T03:36:10;15.77;;;12.45;;
12214;SDS011;6170;42.206;24.142;2023-06-04T03:38:37;16.10;;;11.38;;
12214;SDS011;6170;42.206;24.142;2023-06-04T03:41:04;18.15;;;11.20;;
12214;SDS011;6170;42.206;24.142;2023-06-04T03:43:31;14.20;;;10.48;;
12214;SDS011;6170;42.206;24.142;2023-06-04T03:45:57;15.77;;;10.60;;
12214;SDS011;6170;42.206;24.142;2023-06-04T03:48:26;13.52;;;10.35;;
12214;SDS011;6170;42.206;24.142;2023-06-04T03:50:53;14.52;;;10.68;;
12214;SDS011;6170;42.206;24.142;2023-06-04T03:53:19;17.65;;;11.23;;
12214;SDS011;6170;42.206;24.142;2023-06-04T03:55:46;13.82;;;10.93;;
12214;SDS011;6170;42.206;24.142;2023-06-04T03:58:13;13.75;;;11.60;;
12214;SDS011;6170;42.206;24.142;2023-06-04T04:00:41;16.92;;;11.45;;
12214;SDS011;6170;42.206;24.142;2023-06-04T04:03:07;17.23;;;11.48;;
12214;SDS011;6170;42.206;24.142;2023-06-04T04:05:36;13.70;;;11.50;;
12214;SDS011;6170;42.206;24.142;2023-06-04T04:08:03;14.35;;;10.82;;
12214;SDS011;6170;42.206;24.142;2023-06-04T04:10:31;16.23;;;11.52;;
12214;SDS011;6170;42.206;24.142;2023-06-04T04:12:58;13.07;;;11.27;;
12214;SDS011;6170;42.206;24.142;2023-06-04T04:15:25;18.00;;;11.60;;
12214;SDS011;6170;42.206;24.142;2023-06-04T04:17:51;16.40;;;11.82;;
12214;SDS011;6170;42.206;24.142;2023-06-04T04:20:18;12.82;;;9.52;;
12214;SDS011;6170;42.206;24.142;2023-06-04T04:22:47;12.93;;;10.10;;
12214;SDS011;6170;42.206;24.142;2023-06-04T04:25:15;11.40;;;9.52;;
12214;SDS011;6170;42.206;24.142;2023-06-04T04:27:42;13.60;;;9.27;;
12214;SDS011;6170;42.206;24.142;2023-06-04T04:30:09;8.82;;;7.68;;
12214;SDS011;6170;42.206;24.142;2023-06-04T04:32:37;12.48;;;7.72;;
12214;SDS011;6170;42.206;24.142;2023-06-04T04:35:05;13.80;;;7.72;;
12214;SDS011;6170;42.206;24.142;2023-06-04T04:37:34;14.45;;;7.90;;
12214;SDS011;6170;42.206;24.142;2023-06-04T04:40:06;14.73;;;7.38;;
12214;SDS011;6170;42.206;24.142;2023-06-04T04:42:36;12.45;;;7.18;;
12214;SDS011;6170;42.206;24.142;2023-06-04T04:45:04;11.18;;;7.40;;
12214;SDS011;6170;42.206;24.142;2023-06-04T04:47:31;16.20;;;7.55;;
12214;SDS011;6170;42.206;24.142;2023-06-04T04:49:58;8.38;;;6.85;;
12214;SDS011;6170;42.206;24.142;2023-06-04T04:52:25;8.32;;;7.20;;
12214;SDS011;6170;42.206;24.142;2023-06-04T04:54:52;11.57;;;7.22;;
12214;SDS011;6170;42.206;24.142;2023-06-04T04:57:22;10.10;;;7.40;;
12214;SDS011;6170;42.206;24.142;2023-06-04T04:59:50;9.52;;;7.15;;
12214;SDS011;6170;42.206;24.142;2023-06-04T05:02:16;9.38;;;6.45;;
12214;SDS011;6170;42.206;24.142;2023-06-04T05:04:43;13.07;;;6.80;;
12214;SDS011;6170;42.206;24.142;2023-06-04T05:07:10;10.20;;;6.95;;
12214;SDS011;6170;42.206;24.142;2023-06-04T05:09:37;8.13;;;6.78;;
12214;SDS011;6170;42.206;24.142;2023-06-04T05:12:04;13.85;;;7.00;;
12214;SDS011;6170;42.206;24.142;2023-06-04T05:14:33;11.10;;;6.90;;
12214;SDS011;6170;42.206;24.142;2023-06-04T05:17:02;9.82;;;7.13;;
12214;SDS011;6170;42.206;24.142;2023-06-04T05:19:29;10.07;;;7.00;;
12214;SDS011;6170;42.206;24.142;2023-06-04T05:21:58;11.80;;;6.80;;
12214;SDS011;6170;42.206;24.142;2023-06-04T05:24:25;10.80;;;7.65;;
12214;SDS011;6170;42.206;24.142;2023-06-04T05:26:54;12.93;;;7.80;;
12214;SDS011;6170;42.206;24.142;2023-06-04T05:29:21;15.88;;;8.10;;
12214;SDS011;6170;42.206;24.142;2023-06-04T05:31:50;10.35;;;7.05;;
12214;SDS011;6170;42.206;24.142;2023-06-04T05:34:17;15.00;;;7.82;;
12214;SDS011;6170;42.206;24.142;2023-06-04T05:36:44;10.35;;;7.65;;
12214;SDS011;6170;42.206;24.142;2023-06-04T05:39:11;15.05;;;7.15;;
12214;SDS011;6170;42.206;24.142;2023-06-04T05:41:39;13.80;;;8.65;;
12214;SDS011;6170;42.206;24.142;2023-06-04T05:44:07;15.05;;;8.57;;
12214;SDS011;6170;42.206;24.142;2023-06-04T05:46:34;14.77;;;8.63;;
12214;SDS011;6170;42.206;24.142;2023-06-04T05:49:03;12.15;;;8.27;;
12214;SDS011;6170;42.206;24.142;2023-06-04T05:51:30;8.73;;;7.82;;
12214;SDS011;6170;42.206;24.142;2023-06-04T05:53:57;12.60;;;9.00;;
12214;SDS011;6170;42.206;24.142;2023-06-04T05:56:23;11.32;;;8.23;;
12214;SDS011;6170;42.206;24.142;2023-06-04T05:58:51;10.80;;;8.20;;
12214;SDS011;6170;42.206;24.142;2023-06-04T06:01:18;19.65;;;8.10;;
12214;SDS011;6170;42.206;24.142;2023-06-04T06:03:46;12.82;;;8.13;;
12214;SDS011;6170;42.206;24.142;2023-06-04T06:06:15;11.70;;;8.27;;
12214;SDS011;6170;42.206;24.142;2023-06-04T06:08:43;11.13;;;7.90;;
12214;SDS011;6170;42.206;24.142;2023-06-04T06:11:10;10.98;;;8.55;;
12214;SDS011;6170;42.206;24.142;2023-06-04T06:13:37;9.38;;;6.82;;
12214;SDS011;6170;42.206;24.142;2023-06-04T06:16:04;13.27;;;7.63;;
12214;SDS011;6170;42.206;24.142;2023-06-04T06:18:31;11.18;;;7.43;;
12214;SDS011;6170;42.206;24.142;2023-06-04T06:20:58;13.18;;;7.97;;
12214;SDS011;6170;42.206;24.142;2023-06-04T06:23:27;9.75;;;7.57;;
12214;SDS011;6170;42.206;24.142;2023-06-04T06:25:54;11.80;;;6.85;;
12214;SDS011;6170;42.206;24.142;2023-06-04T06:28:20;14.88;;;7.22;;
12214;SDS011;6170;42.206;24.142;2023-06-04T06:30:47;7.68;;;6.88;;
12214;SDS011;6170;42.206;24.142;2023-06-04T06:33:14;11.45;;;6.88;;
12214;SDS011;6170;42.206;24.142;2023-06-04T06:35:41;10.68;;;7.50;;
12214;SDS011;6170;42.206;24.142;2023-06-04T06:38:11;10.63;;;7.80;;
12214;SDS011;6170;42.206;24.142;2023-06-04T06:40:40;12.75;;;7.55;;
12214;SDS011;6170;42.206;24.142;2023-06-04T06:43:07;12.20;;;8.00;;
12214;SDS011;6170;42.206;24.142;2023-06-04T06:45:35;11.18;;;8.13;;
12214;SDS011;6170;42.206;24.142;2023-06-04T06:48:02;10.80;;;7.80;;
12214;SDS011;6170;42.206;24.142;2023-06-04T06:50:29;12.20;;;7.88;;
12214;SDS011;6170;42.206;24.142;2023-06-04T06:52:56;11.20;;;7.68;;
12214;SDS011;6170;42.206;24.142;2023-06-04T06:55:22;13.27;;;7.88;;
12214;SDS011;6170;42.206;24.142;2023-06-04T06:57:51;10.38;;;7.00;;
12214;SDS011;6170;42.206;24.142;2023-06-04T07:00:18;10.02;;;6.45;;
12214;SDS011;6170;42.206;24.142;2023-06-04T07:02:45;10.90;;;7.45;;
12214;SDS011;6170;42.206;24.142;2023-06-04T07:05:12;9.93;;;6.93;;
12214;SDS011;6170;42.206;24.142;2023-06-04T07:07:42;10.10;;;6.90;;
12214;SDS011;6170;42.206;24.142;2023-06-04T07:10:09;11.60;;;6.80;;
12214;SDS011;6170;42.206;24.142;2023-06-04T07:12:36;8.85;;;6.50;;
12214;SDS011;6170;42.206;24.142;2023-06-04T07:15:06;6.10;;;5.00;;
12214;SDS011;6170;42.206;24.142;2023-06-04T07:17:34;7.53;;;6.38;;
12214;SDS011;6170;42.206;24.142;2023-06-04T07:20:01;10.25;;;6.97;;
12214;SDS011;6170;42.206;24.142;2023-06-04T07:22:29;10.32;;;6.93;;
12214;SDS011;6170;42.206;24.142;2023-06-04T07:24:56;9.85;;;6.90;;
12214;SDS011;6170;42.206;24.142;2023-06-04T07:27:22;11.93;;;6.63;;
12214;SDS011;6170;42.206;24.142;2023-06-04T07:29:50;9.13;;;7.13;;
12214;SDS011;6170;42.206;24.142;2023-06-04T07:32:18;13.48;;;7.50;;
12214;SDS011;6170;42.206;24.142;2023-06-04T07:34:45;10.30;;;7.47;;
12214;SDS011;6170;42.206;24.142;2023-06-04T07:37:12;12.65;;;6.95;;
12214;SDS011;6170;42.206;24.142;2023-06-04T07:39:40;8.10;;;7.18;;
12214;SDS011;6170;42.206;24.142;2023-06-04T07:42:07;12.70;;;7.43;;
12214;SDS011;6170;42.206;24.142;2023-06-04T07:44:35;8.07;;;7.00;;
12214;SDS011;6170;42.206;24.142;2023-06-04T07:47:03;8.77;;;7.63;;
12214;SDS011;6170;42.206;24.142;2023-06-04T07:49:31;9.02;;;7.45;;
12214;SDS011;6170;42.206;24.142;2023-06-04T07:51:58;10.18;;;6.88;;
12214;SDS011;6170;42.206;24.142;2023-06-04T07:54:25;12.38;;;6.80;;
12214;SDS011;6170;42.206;24.142;2023-06-04T07:56:52;11.10;;;6.70;;
12214;SDS011;6170;42.206;24.142;2023-06-04T07:59:21;10.30;;;7.60;;
12214;SDS011;6170;42.206;24.142;2023-06-04T08:01:49;8.57;;;7.68;;
12214;SDS011;6170;42.206;24.142;2023-06-04T08:04:16;14.38;;;7.57;;
12214;SDS011;6170;42.206;24.142;2023-06-04T08:06:44;9.70;;;7.57;;
12214;SDS011;6170;42.206;24.142;2023-06-04T08:09:11;11.95;;;7.80;;
12214;SDS011;6170;42.206;24.142;2023-06-04T08:11:39;9.25;;;7.82;;
12214;SDS011;6170;42.206;24.142;2023-06-04T08:14:07;10.13;;;8.07;;
12214;SDS011;6170;42.206;24.142;2023-06-04T08:16:34;9.52;;;7.55;;
12214;SDS011;6170;42.206;24.142;2023-06-04T08:19:01;12.63;;;7.82;;
12214;SDS011;6170;42.206;24.142;2023-06-04T08:21:28;11.77;;;7.93;;
12214;SDS011;6170;42.206;24.142;2023-06-04T08:23:57;10.00;;;7.65;;
12214;SDS011;6170;42.206;24.142;2023-06-04T08:26:24;11.27;;;6.88;;
12214;SDS011;6170;42.206;24.142;2023-06-04T08:28:52;12.82;;;7.40;;
12214;SDS011;6170;42.206;24.142;2023-06-04T08:31:19;11.57;;;8.18;;
12214;SDS011;6170;42.206;24.142;2023-06-04T08:33:46;8.70;;;7.47;;
12214;SDS011;6170;42.206;24.142;2023-06-04T08:36:13;9.60;;;7.72;;
12214;SDS011;6170;42.206;24.142;2023-06-04T08:38:41;11.63;;;7.57;;
12214;SDS011;6170;42.206;24.142;2023-06-04T08:41:11;11.45;;;8.15;;
12214;SDS011;6170;42.206;24.142;2023-06-04T08:43:41;12.82;;;7.70;;
12214;SDS011;6170;42.206;24.142;2023-06-04T08:46:09;10.77;;;7.40;;
12214;SDS011;6170;42.206;24.142;2023-06-04T08:48:38;16.35;;;8.30;;
12214;SDS011;6170;42.206;24.142;2023-06-04T08:51:05;11.25;;;8.15;;
12214;SDS011;6170;42.206;24.142;2023-06-04T08:53:34;9.77;;;8.13;;
12214;SDS011;6170;42.206;24.142;2023-06-04T08:56:02;11.50;;;8.10;;
12214;SDS011;6170;42.206;24.142;2023-06-04T08:58:31;9.85;;;7.68;;
12214;SDS011;6170;42.206;24.142;2023-06-04T09:00:59;10.20;;;8.43;;
12214;SDS011;6170;42.206;24.142;2023-06-04T09:03:27;10.25;;;8.32;;
12214;SDS011;6170;42.206;24.142;2023-06-04T09:05:56;12.77;;;8.45;;
12214;SDS011;6170;42.206;24.142;2023-06-04T09:08:25;10.63;;;7.78;;
12214;SDS011;6170;42.206;24.142;2023-06-04T09:10:53;8.60;;;7.32;;
12214;SDS011;6170;42.206;24.142;2023-06-04T09:13:21;8.43;;;7.30;;
12214;SDS011;6170;42.206;24.142;2023-06-04T09:16:01;11.50;;;7.57;;
12214;SDS011;6170;42.206;24.142;2023-06-04T09:18:29;11.10;;;8.15;;
12214;SDS011;6170;42.206;24.142;2023-06-04T09:21:00;10.80;;;7.70;;
12214;SDS011;6170;42.206;24.142;2023-06-04T09:23:28;9.65;;;8.00;;
12214;SDS011;6170;42.206;24.142;2023-06-04T09:25:55;14.95;;;8.18;;
12214;SDS011;6170;42.206;24.142;2023-06-04T09:28:22;11.45;;;8.60;;
12214;SDS011;6170;42.206;24.142;2023-06-04T09:30:52;10.57;;;8.45;;
12214;SDS011;6170;42.206;24.142;2023-06-04T09:33:20;13.45;;;8.40;;
12214;SDS011;6170;42.206;24.142;2023-06-04T09:35:55;12.55;;;8.35;;
12214;SDS011;6170;42.206;24.142;2023-06-04T09:38:22;9.40;;;8.40;;
12214;SDS011;6170;42.206;24.142;2023-06-04T09:40:49;12.93;;;8.60;;
12214;SDS011;6170;42.206;24.142;2023-06-04T09:43:23;11.65;;;8.40;;
12214;SDS011;6170;42.206;24.142;2023-06-04T09:45:50;14.32;;;9.70;;
12214;SDS011;6170;42.206;24.142;2023-06-04T09:48:22;14.15;;;8.90;;
12214;SDS011;6170;42.206;24.142;2023-06-04T09:50:49;15.85;;;9.18;;
12214;SDS011;6170;42.206;24.142;2023-06-04T09:53:17;11.50;;;9.05;;
12214;SDS011;6170;42.206;24.142;2023-06-04T09:55:55;13.52;;;8.77;;
12214;SDS011;6170;42.206;24.142;2023-06-04T09:58:23;17.42;;;9.40;;
12214;SDS011;6170;42.206;24.142;2023-06-04T10:00:52;11.77;;;10.10;;
12214;SDS011;6170;42.206;24.142;2023-06-04T10:03:22;11.75;;;9.00;;
12214;SDS011;6170;42.206;24.142;2023-06-04T10:05:53;12.43;;;9.85;;
12214;SDS011;6170;42.206;24.142;2023-06-04T10:08:22;11.20;;;10.00;;
12214;SDS011;6170;42.206;24.142;2023-06-04T10:10:50;12.95;;;9.70;;
12214;SDS011;6170;42.206;24.142;2023-06-04T10:13:18;15.45;;;9.63;;
12214;SDS011;6170;42.206;24.142;2023-06-04T10:15:46;11.50;;;9.52;;
12214;SDS011;6170;42.206;24.142;2023-06-04T10:18:13;11.77;;;9.27;;
12214;SDS011;6170;42.206;24.142;2023-06-04T10:20:42;13.45;;;9.93;;
12214;SDS011;6170;42.206;24.142;2023-06-04T10:23:09;10.25;;;8.35;;
12214;SDS011;6170;42.206;24.142;2023-06-04T10:25:36;12.57;;;8.70;;
12214;SDS011;6170;42.206;24.142;2023-06-04T10:28:04;15.65;;;9.65;;
12214;SDS011;6170;42.206;24.142;2023-06-04T10:30:31;10.55;;;9.23;;
12214;SDS011;6170;42.206;24.142;2023-06-04T10:32:58;18.52;;;9.02;;
12214;SDS011;6170;42.206;24.142;2023-06-04T10:35:29;12.30;;;9.52;;
12214;SDS011;6170;42.206;24.142;2023-06-04T10:38:05;15.27;;;10.02;;
12214;SDS011;6170;42.206;24.142;2023-06-04T10:40:33;12.98;;;9.55;;
12214;SDS011;6170;42.206;24.142;2023-06-04T10:43:04;11.90;;;8.98;;
12214;SDS011;6170;42.206;24.142;2023-06-04T10:45:31;15.73;;;9.90;;
12214;SDS011;6170;42.206;24.142;2023-06-04T10:48:01;14.10;;;9.77;;
12214;SDS011;6170;42.206;24.142;2023-06-04T10:50:29;12.80;;;9.70;;
12214;SDS011;6170;42.206;24.142;2023-06-04T10:52:57;12.75;;;9.57;;
12214;SDS011;6170;42.206;24.142;2023-06-04T10:55:29;13.05;;;10.82;;
12214;SDS011;6170;42.206;24.142;2023-06-04T10:57:57;17.10;;;10.68;;
12214;SDS011;6170;42.206;24.142;2023-06-04T11:00:35;18.08;;;11.30;;
12214;SDS011;6170;42.206;24.142;2023-06-04T11:03:02;12.75;;;11.18;;
12214;SDS011;6170;42.206;24.142;2023-06-04T11:05:35;13.02;;;11.23;;
12214;SDS011;6170;42.206;24.142;2023-06-04T11:08:03;13.27;;;10.30;;
12214;SDS011;6170;42.206;24.142;2023-06-04T11:10:33;13.10;;;11.27;;
12214;SDS011;6170;42.206;24.142;2023-06-04T11:13:01;11.98;;;10.50;;
12214;SDS011;6170;42.206;24.142;2023-06-04T11:15:37;12.70;;;10.68;;
12214;SDS011;6170;42.206;24.142;2023-06-04T11:18:05;13.18;;;10.52;;
12214;SDS011;6170;42.206;24.142;2023-06-04T11:20:32;16.67;;;10.30;;
12214;SDS011;6170;42.206;24.142;2023-06-04T11:22:59;12.13;;;9.73;;
12214;SDS011;6170;42.206;24.142;2023-06-04T11:25:28;11.20;;;10.10;;
12214;SDS011;6170;42.206;24.142;2023-06-04T11:27:59;11.95;;;10.63;;
12214;SDS011;6170;42.206;24.142;2023-06-04T11:30:27;13.75;;;10.50;;
12214;SDS011;6170;42.206;24.142;2023-06-04T11:33:01;14.18;;;10.85;;
12214;SDS011;6170;42.206;24.142;2023-06-04T11:35:29;11.82;;;9.27;;
12214;SDS011;6170;42.206;24.142;2023-06-04T11:37:56;10.95;;;9.20;;
12214;SDS011;6170;42.206;24.142;2023-06-04T11:40:24;11.70;;;8.13;;
12214;SDS011;6170;42.206;24.142;2023-06-04T11:42:52;11.68;;;8.25;;
12214;SDS011;6170;42.206;24.142;2023-06-04T11:45:21;14.05;;;9.05;;
12214;SDS011;6170;42.206;24.142;2023-06-04T11:47:49;12.55;;;9.10;;
12214;SDS011;6170;42.206;24.142;2023-06-04T11:50:17;10.65;;;8.25;;
12214;SDS011;6170;42.206;24.142;2023-06-04T11:52:44;9.93;;;8.93;;
12214;SDS011;6170;42.206;24.142;2023-06-04T11:55:13;13.15;;;8.05;;
12214;SDS011;6170;42.206;24.142;2023-06-04T11:57:42;17.38;;;9.57;;
12214;SDS011;6170;42.206;24.142;2023-06-04T12:00:10;18.80;;;9.02;;
12214;SDS011;6170;42.206;24.142;2023-06-04T12:02:48;10.82;;;8.27;;
12214;SDS011;6170;42.206;24.142;2023-06-04T12:05:17;11.45;;;8.32;;
12214;SDS011;6170;42.206;24.142;2023-06-04T12:07:45;10.23;;;8.88;;
12214;SDS011;6170;42.206;24.142;2023-06-04T12:10:12;11.90;;;8.85;;
12214;SDS011;6170;42.206;24.142;2023-06-04T12:12:40;12.45;;;8.07;;
12214;SDS011;6170;42.206;24.142;2023-06-04T12:15:07;9.90;;;8.13;;
12214;SDS011;6170;42.206;24.142;2023-06-04T12:17:35;11.65;;;8.82;;
12214;SDS011;6170;42.206;24.142;2023-06-04T12:20:05;11.75;;;7.72;;
12214;SDS011;6170;42.206;24.142;2023-06-04T12:22:33;9.60;;;7.22;;
12214;SDS011;6170;42.206;24.142;2023-06-04T12:25:10;8.43;;;7.47;;
12214;SDS011;6170;42.206;24.142;2023-06-04T12:27:37;12.65;;;7.53;;
12214;SDS011;6170;42.206;24.142;2023-06-04T12:30:13;17.25;;;8.05;;
12214;SDS011;6170;42.206;24.142;2023-06-04T12:32:41;11.20;;;6.85;;
12214;SDS011;6170;42.206;24.142;2023-06-04T12:35:10;11.38;;;6.32;;
12214;SDS011;6170;42.206;24.142;2023-06-04T12:37:37;8.00;;;5.53;;
12214;SDS011;6170;42.206;24.142;2023-06-04T12:40:05;9.60;;;6.38;;
12214;SDS011;6170;42.206;24.142;2023-06-04T12:42:32;17.30;;;6.55;;
12214;SDS011;6170;42.206;24.142;2023-06-04T12:44:59;19.70;;;6.47;;
12214;SDS011;6170;42.206;24.142;2023-06-04T12:47:26;7.82;;;5.78;;
12214;SDS011;6170;42.206;24.142;2023-06-04T12:49:53;8.82;;;6.25;;
12214;SDS011;6170;42.206;24.142;2023-06-04T12:52:21;7.38;;;5.53;;
12214;SDS011;6170;42.206;24.142;2023-06-04T12:54:48;9.38;;;6.03;;
12214;SDS011;6170;42.206;24.142;2023-06-04T12:57:15;11.13;;;5.70;;
12214;SDS011;6170;42.206;24.142;2023-06-04T12:59:42;11.88;;;5.88;;
12214;SDS011;6170;42.206;24.142;2023-06-04T13:02:09;9.30;;;5.55;;
12214;SDS011;6170;42.206;24.142;2023-06-04T13:04:36;7.57;;;5.57;;
12214;SDS011;6170;42.206;24.142;2023-06-04T13:07:03;12.55;;;6.35;;
12214;SDS011;6170;42.206;24.142;2023-06-04T13:09:31;11.73;;;6.13;;
12214;SDS011;6170;42.206;24.142;2023-06-04T13:12:00;10.43;;;6.70;;
12214;SDS011;6170;42.206;24.142;2023-06-04T13:14:28;9.05;;;5.85;;
12214;SDS011;6170;42.206;24.142;2023-06-04T13:16:58;7.45;;;6.43;;
12214;SDS011;6170;42.206;24.142;2023-06-04T13:19:25;7.85;;;6.38;;
12214;SDS011;6170;42.206;24.142;2023-06-04T13:21:52;7.07;;;6.38;;
12214;SDS011;6170;42.206;24.142;2023-06-04T13:24:19;8.57;;;6.60;;
12214;SDS011;6170;42.206;24.142;2023-06-04T13:26:47;10.57;;;6.60;;
12214;SDS011;6170;42.206;24.142;2023-06-04T13:29:14;10.55;;;6.30;;
12214;SDS011;6170;42.206;24.142;2023-06-04T13:31:44;11.65;;;6.90;;
12214;SDS011;6170;42.206;24.142;2023-06-04T13:34:11;9.23;;;6.90;;
12214;SDS011;6170;42.206;24.142;2023-06-04T13:36:38;9.23;;;7.28;;
12214;SDS011;6170;42.206;24.142;2023-06-04T13:39:05;10.98;;;8.15;;
12214;SDS011;6170;42.206;24.142;2023-06-04T13:41:32;6.93;;;6.07;;
12214;SDS011;6170;42.206;24.142;2023-06-04T13:44:00;8.27;;;6.32;;
12214;SDS011;6170;42.206;24.142;2023-06-04T13:46:27;6.95;;;6.20;;
12214;SDS011;6170;42.206;24.142;2023-06-04T13:48:54;11.48;;;6.47;;
12214;SDS011;6170;42.206;24.142;2023-06-04T13:51:21;12.15;;;7.30;;
12214;SDS011;6170;42.206;24.142;2023-06-04T13:53:47;9.82;;;6.80;;
12214;SDS011;6170;42.206;24.142;2023-06-04T13:56:17;9.93;;;6.35;;
12214;SDS011;6170;42.206;24.142;2023-06-04T13:58:44;7.90;;;6.50;;
12214;SDS011;6170;42.206;24.142;2023-06-04T14:01:12;6.47;;;5.85;;
12214;SDS011;6170;42.206;24.142;2023-06-04T14:03:39;8.27;;;6.35;;
12214;SDS011;6170;42.206;24.142;2023-06-04T14:06:06;8.85;;;6.55;;
12214;SDS011;6170;42.206;24.142;2023-06-04T14:08:33;10.45;;;6.32;;
12214;SDS011;6170;42.206;24.142;2023-06-04T14:11:00;19.83;;;7.07;;
12214;SDS011;6170;42.206;24.142;2023-06-04T14:13:27;8.43;;;7.20;;
12214;SDS011;6170;42.206;24.142;2023-06-04T14:15:53;13.50;;;6.82;;
12214;SDS011;6170;42.206;24.142;2023-06-04T14:18:22;8.27;;;6.53;;
12214;SDS011;6170;42.206;24.142;2023-06-04T14:20:49;10.13;;;6.70;;
12214;SDS011;6170;42.206;24.142;2023-06-04T14:23:16;11.07;;;7.10;;
12214;SDS011;6170;42.206;24.142;2023-06-04T14:25:43;9.52;;;7.90;;
12214;SDS011;6170;42.206;24.142;2023-06-04T14:28:10;9.48;;;8.50;;
12214;SDS011;6170;42.206;24.142;2023-06-04T14:30:37;10.45;;;8.10;;
12214;SDS011;6170;42.206;24.142;2023-06-04T14:33:04;13.73;;;8.40;;
12214;SDS011;6170;42.206;24.142;2023-06-04T14:35:32;17.13;;;8.90;;
12214;SDS011;6170;42.206;24.142;2023-06-04T14:37:59;12.07;;;8.75;;